Crocker, Washington
Current Conditions -  °F | °C
As of 3:58 AM on Friday 19 Dec 2014 (Local Time) from KTCM Reporting Station
Overcast Overcast  
Wind Chill: 43°   Ceiling: 4300
Heat Index: 46°   Visibility: 10mi
Dew Point: 46°   Wind: 6mph
Humidity: 99%   Direction: 180°S
Pressure: 29.83"   Gusts: NA
Location:  46.993°N, 122.097°W
Report Text: KTCM 191158Z AUTO 18005KT 10SM BKN043 OVC055 08/08 A2983 RMK AO2 RAB02E12 SLP106 P0000 60009 70035 T00780076 10095 20078 51011
Loading
Personal Weather Stations






























Interactive Weather Map New forecast layout! Learn more

10-Day Weather Forecast

Advertisements
Track Severe Weather on mobile